Time;durP1;ratioP1;P1;durP2;ratioP2;P2;SDS_P1;SDS_P2;PMS_P1;PMS_P2;Temp;Humidity;BMP_temperature;BMP_pressure;BME280_temperature;BME280_humidity;BME280_pressure;Samples;Min_cycle;Max_cycle;Signal;HPM_P1;HPM_P2
2022/11/12 00:01:57;;;;;;;9.70;4.87;;;6.70;99.90;;;;;;5053960;28;20211;-57
2022/11/12 00:04:24;;;;;;;8.43;4.83;;;6.70;99.90;;;;;;5054158;28;20205;-58
2022/11/12 00:06:51;;;;;;;7.67;5.03;;;6.60;99.90;;;;;;5053429;28;20222;-58
2022/11/12 00:09:17;;;;;;;7.10;5.40;;;6.70;99.90;;;;;;5053179;28;20201;-57
2022/11/12 00:11:46;;;;;;;5.67;5.07;;;6.70;99.90;;;;;;5053568;28;20233;-57
2022/11/12 00:14:13;;;;;;;8.57;5.30;;;6.70;99.90;;;;;;5053560;28;20292;-57
2022/11/12 00:16:39;;;;;;;6.03;5.17;;;6.70;99.90;;;;;;5049076;28;21013;-58
2022/11/12 00:19:06;;;;;;;6.10;4.97;;;6.60;99.90;;;;;;5060310;28;20201;-59
2022/11/12 00:21:33;;;;;;;7.80;5.80;;;6.60;99.90;;;;;;5061739;28;20651;-59
2022/11/12 00:24:00;;;;;;;6.93;5.30;;;6.50;99.90;;;;;;5051091;28;20697;-58
2022/11/12 00:26:27;;;;;;;7.97;5.40;;;6.60;99.90;;;;;;5053057;28;20236;-58
2022/11/12 00:28:56;;;;;;;6.07;4.80;;;6.50;99.90;;;;;;5053384;28;20216;-57
2022/11/12 00:31:23;;;;;;;5.77;4.77;;;6.50;99.90;;;;;;5053416;28;20263;-58
2022/11/12 00:33:50;;;;;;;6.90;4.60;;;6.50;99.90;;;;;;5053288;28;20296;-58
2022/11/12 00:36:17;;;;;;;4.97;4.47;;;6.50;99.90;;;;;;5052723;28;20265;-57
2022/11/12 00:38:43;;;;;;;6.00;4.80;;;6.50;99.90;;;;;;5053061;28;20201;-58
2022/11/12 00:41:10;;;;;;;6.03;4.87;;;6.50;99.90;;;;;;5052281;28;20205;-57
2022/11/12 00:43:37;;;;;;;5.00;4.20;;;6.50;99.90;;;;;;5052905;28;20209;-57
2022/11/12 00:46:05;;;;;;;8.13;4.70;;;6.40;99.90;;;;;;5052538;28;20201;-58
2022/11/12 00:48:32;;;;;;;5.83;4.10;;;6.30;99.90;;;;;;5052730;28;20212;-57
2022/11/12 00:51:01;;;;;;;8.10;4.70;;;6.30;99.90;;;;;;5051965;28;20220;-58
2022/11/12 00:53:28;;;;;;;5.63;4.90;;;6.20;99.90;;;;;;5052805;28;20292;-58
2022/11/12 00:56:00;;;;;;;5.80;4.63;;;6.20;99.90;;;;;;5052400;28;20209;-57
2022/11/12 00:58:29;;;;;;;5.60;5.00;;;6.20;99.90;;;;;;5052736;28;20252;-57
2022/11/12 01:00:56;;;;;;;7.93;4.90;;;6.20;99.90;;;;;;5052025;28;20205;-58
2022/11/12 01:03:28;;;;;;;7.80;4.60;;;6.00;99.90;;;;;;5052588;28;20582;-55
2022/11/12 01:05:55;;;;;;;6.77;4.57;;;6.00;99.90;;;;;;5052541;28;20205;-56
2022/11/12 01:08:21;;;;;;;6.30;4.67;;;5.90;99.90;;;;;;5052289;28;20287;-56
2022/11/12 01:10:48;;;;;;;5.90;4.37;;;5.90;99.90;;;;;;5052185;28;20578;-57
2022/11/12 01:13:15;;;;;;;7.93;4.67;;;5.90;99.90;;;;;;5052388;28;20592;-57
2022/11/12 01:15:42;;;;;;;6.30;5.17;;;5.90;99.90;;;;;;5052713;28;20206;-56
2022/11/12 01:18:09;;;;;;;7.00;5.17;;;5.90;99.90;;;;;;5052193;28;20240;-56
2022/11/12 01:20:39;;;;;;;7.23;5.10;;;5.90;99.90;;;;;;5052116;28;20201;-57
2022/11/12 01:23:06;;;;;;;6.00;4.57;;;5.90;99.90;;;;;;5052841;28;20243;-57
2022/11/12 01:25:33;;;;;;;6.57;4.97;;;5.90;99.90;;;;;;5052229;28;20717;-57
2022/11/12 01:28:00;;;;;;;6.17;4.57;;;5.80;99.90;;;;;;5052381;28;20257;-56
2022/11/12 01:30:27;;;;;;;5.63;4.70;;;5.90;99.90;;;;;;5051757;28;20211;-57
2022/11/12 01:32:53;;;;;;;5.20;4.53;;;5.90;99.90;;;;;;5052239;28;20609;-56
2022/11/12 01:35:20;;;;;;;7.37;5.10;;;5.80;99.90;;;;;;5052037;28;20301;-56
2022/11/12 01:37:49;;;;;;;5.90;4.70;;;5.80;99.90;;;;;;5052489;28;20561;-55
2022/11/12 01:40:16;;;;;;;5.17;4.40;;;5.80;99.90;;;;;;5052288;28;20598;-55
2022/11/12 01:42:43;;;;;;;8.60;5.20;;;5.70;99.90;;;;;;5052571;28;20213;-55
2022/11/12 01:45:15;;;;;;;6.70;4.70;;;5.80;99.90;;;;;;5052537;28;20216;-56
2022/11/12 01:47:44;;;;;;;5.87;4.67;;;5.80;99.90;;;;;;5052391;28;20226;-56
2022/11/12 01:50:17;;;;;;;6.97;4.60;;;5.80;99.90;;;;;;5051619;28;20217;-55
2022/11/12 01:52:49;;;;;;;7.53;5.00;;;5.80;99.90;;;;;;5052530;28;20205;-56
2022/11/12 01:55:21;;;;;;;5.30;4.63;;;5.80;99.90;;;;;;5052585;28;20201;-55
2022/11/12 01:57:52;;;;;;;5.83;4.90;;;5.80;99.90;;;;;;5052662;28;20610;-56
2022/11/12 02:00:20;;;;;;;6.47;5.00;;;5.80;99.90;;;;;;5052462;28;20669;-56
2022/11/12 02:02:52;;;;;;;5.00;4.50;;;5.80;99.90;;;;;;5054571;28;20205;-55
2022/11/12 02:05:22;;;;;;;6.93;4.87;;;5.80;99.90;;;;;;5056842;28;20583;-55
2022/11/12 02:07:52;;;;;;;5.03;4.53;;;5.80;99.90;;;;;;5056762;28;20275;-55
2022/11/12 02:10:20;;;;;;;7.47;4.97;;;5.80;99.90;;;;;;5056135;28;20213;-55
2022/11/12 02:15:31;;;;;;;7.27;4.60;;;5.80;99.90;;;;;;5056201;28;20676;-55
2022/11/12 02:17:58;;;;;;;6.13;4.97;;;5.80;99.90;;;;;;5056005;28;20263;-55
2022/11/12 02:20:25;;;;;;;6.57;5.13;;;5.80;99.90;;;;;;5056412;28;20232;-55
2022/11/12 02:22:54;;;;;;;5.43;4.43;;;5.70;99.90;;;;;;5056639;28;20528;-55
2022/11/12 02:25:24;;;;;;;8.40;5.10;;;5.70;99.90;;;;;;5056401;28;20209;-56
2022/11/12 02:27:54;;;;;;;5.63;4.67;;;5.60;99.90;;;;;;5056420;28;20240;-56
2022/11/12 02:30:32;;;;;;;8.20;5.20;;;5.60;99.90;;;;;;5056504;28;20251;-57
2022/11/12 02:32:59;;;;;;;6.13;4.90;;;5.60;99.90;;;;;;5056114;28;20202;-56
2022/11/12 02:35:26;;;;;;;7.47;5.03;;;5.60;99.90;;;;;;5056103;28;20210;-55
2022/11/12 02:37:54;;;;;;;5.97;4.83;;;5.60;99.90;;;;;;5055739;28;20283;-56
2022/11/12 02:40:21;;;;;;;5.13;4.13;;;5.70;99.90;;;;;;5055452;28;20288;-56
2022/11/12 02:42:48;;;;;;;6.13;4.80;;;5.70;99.90;;;;;;5055591;28;20260;-55
2022/11/12 02:45:16;;;;;;;5.83;4.80;;;5.70;99.90;;;;;;5055799;28;20213;-55
2022/11/12 02:47:43;;;;;;;7.47;4.67;;;5.60;99.90;;;;;;5055359;28;20222;-55
2022/11/12 02:50:11;;;;;;;7.63;4.67;;;5.70;99.90;;;;;;5054854;28;20221;-55
2022/11/12 02:52:38;;;;;;;6.80;5.00;;;5.70;99.90;;;;;;5055796;28;20614;-55
2022/11/12 02:55:08;;;;;;;7.47;4.90;;;5.70;99.90;;;;;;5055499;28;20292;-55
2022/11/12 02:57:35;;;;;;;6.40;4.90;;;5.70;99.90;;;;;;5055470;28;20706;-55
2022/11/12 03:00:03;;;;;;;5.67;4.90;;;5.70;99.90;;;;;;5054581;28;20231;-55
2022/11/12 03:02:30;;;;;;;7.37;5.07;;;5.70;99.90;;;;;;5055246;28;20210;-56
2022/11/12 03:04:57;;;;;;;9.60;5.20;;;5.50;99.90;;;;;;5055019;28;20212;-55
2022/11/12 03:07:24;;;;;;;7.90;5.57;;;5.30;99.90;;;;;;5055566;28;20241;-56
2022/11/12 03:09:51;;;;;;;5.93;5.20;;;5.30;99.90;;;;;;5054835;28;20234;-55
2022/11/12 03:12:19;;;;;;;6.50;5.30;;;5.20;99.90;;;;;;5055096;28;20213;-56
2022/11/12 03:14:46;;;;;;;7.30;5.50;;;5.30;99.90;;;;;;5054950;28;20296;-55
2022/11/12 03:17:13;;;;;;;6.73;5.03;;;5.40;99.90;;;;;;5054878;28;20389;-55
2022/11/12 03:19:40;;;;;;;6.87;5.37;;;5.50;99.90;;;;;;5054664;28;20267;-56
2022/11/12 03:22:07;;;;;;;7.30;5.10;;;5.60;99.90;;;;;;5054943;28;20284;-55
2022/11/12 03:24:34;;;;;;;7.53;5.43;;;5.70;99.90;;;;;;5054952;28;20209;-55
2022/11/12 03:27:01;;;;;;;6.37;5.57;;;5.70;99.90;;;;;;5054552;28;20723;-55
2022/11/12 03:29:29;;;;;;;5.77;5.13;;;5.70;99.90;;;;;;5054409;28;20216;-55
2022/11/12 03:31:56;;;;;;;9.93;5.63;;;5.70;99.90;;;;;;5054924;28;20229;-55
2022/11/12 03:34:23;;;;;;;8.40;5.63;;;5.70;99.90;;;;;;5054577;28;20205;-55
2022/11/12 03:36:50;;;;;;;6.13;5.20;;;5.70;99.90;;;;;;5053811;28;20324;-55
2022/11/12 03:39:17;;;;;;;6.93;5.53;;;5.60;99.90;;;;;;5053847;28;20267;-56
2022/11/12 03:41:44;;;;;;;9.47;5.90;;;5.70;99.90;;;;;;5054521;28;20590;-55
2022/11/12 03:44:10;;;;;;;6.73;5.87;;;5.60;99.90;;;;;;5054671;28;20673;-57
2022/11/12 03:46:39;;;;;;;6.70;5.90;;;5.70;99.90;;;;;;5054170;28;20226;-56
2022/11/12 03:49:06;;;;;;;6.80;5.50;;;5.80;99.90;;;;;;5054351;28;20288;-55
2022/11/12 03:51:32;;;;;;;7.27;5.67;;;5.70;99.90;;;;;;5053714;28;20308;-59
2022/11/12 03:53:59;;;;;;;7.63;5.50;;;5.80;99.90;;;;;;5054009;28;20217;-55
2022/11/12 03:56:26;;;;;;;6.33;5.60;;;5.80;99.90;;;;;;5053981;28;20283;-56
2022/11/12 03:58:53;;;;;;;6.93;5.07;;;5.80;99.90;;;;;;5053530;28;20237;-56
2022/11/12 04:01:20;;;;;;;8.20;5.63;;;5.80;99.90;;;;;;5053256;28;20375;-56
2022/11/12 04:03:48;;;;;;;6.17;5.23;;;5.90;99.90;;;;;;5053953;28;20865;-56
2022/11/12 04:09:00;;;;;;;9.27;5.67;;;6.00;99.90;;;;;;5053674;28;20199;-56
2022/11/12 04:11:27;;;;;;;9.00;6.07;;;6.20;99.90;;;;;;5052748;28;20236;-56
2022/11/12 04:13:53;;;;;;;6.50;5.60;;;6.30;99.90;;;;;;5053737;28;20205;-57
2022/11/12 04:21:58;;;;;;;9.30;6.33;;;6.60;99.90;;;;;;5053356;28;20204;-56
2022/11/12 04:27:15;;;;;;;8.37;6.30;;;6.80;99.90;;;;;;5053204;28;20621;-57
2022/11/12 04:32:28;;;;;;;7.60;5.70;;;7.00;99.90;;;;;;5053355;28;20258;-57
2022/11/12 04:34:57;;;;;;;6.20;5.60;;;7.10;99.90;;;;;;5053436;28;20233;-56
2022/11/12 04:37:25;;;;;;;7.67;5.17;;;7.20;99.90;;;;;;5053063;28;20605;-56
2022/11/12 04:39:53;;;;;;;6.17;5.17;;;7.20;99.90;;;;;;5052351;28;20213;-57
2022/11/12 04:45:06;;;;;;;7.27;4.53;;;7.20;99.90;;;;;;5053055;28;20251;-57
2022/11/12 04:47:36;;;;;;;11.20;5.33;;;7.10;99.90;;;;;;5053088;28;20623;-56
2022/11/12 04:50:07;;;;;;;5.97;4.50;;;6.90;99.90;;;;;;5052596;28;20209;-56
2022/11/12 04:52:34;;;;;;;7.00;5.30;;;6.80;99.90;;;;;;5053086;28;20241;-56
2022/11/12 04:55:01;;;;;;;6.67;4.77;;;6.80;99.90;;;;;;5053562;28;20359;-56
2022/11/12 04:57:28;;;;;;;6.53;4.87;;;6.90;99.90;;;;;;5052683;28;20221;-56
2022/11/12 04:59:55;;;;;;;6.93;5.03;;;6.90;99.90;;;;;;5052523;28;20210;-56
2022/11/12 05:02:22;;;;;;;6.30;5.20;;;6.90;99.90;;;;;;5053390;28;20216;-56
2022/11/12 05:04:49;;;;;;;7.53;5.10;;;7.00;99.90;;;;;;5053160;28;20398;-56
2022/11/12 05:07:17;;;;;;;7.17;5.10;;;7.00;99.90;;;;;;5053348;28;20233;-56
2022/11/12 05:09:44;;;;;;;7.30;5.50;;;7.00;99.90;;;;;;5052795;28;20210;-56
2022/11/12 05:12:12;;;;;;;5.70;4.70;;;7.00;99.90;;;;;;5052987;28;20206;-56
2022/11/12 05:14:38;;;;;;;5.37;4.47;;;7.00;99.90;;;;;;5052985;28;20205;-56
2022/11/12 05:17:06;;;;;;;7.10;4.97;;;7.10;99.90;;;;;;5052981;28;20257;-57
2022/11/12 05:19:34;;;;;;;6.07;4.80;;;7.10;99.90;;;;;;5052426;28;20205;-56
2022/11/12 05:22:06;;;;;;;6.47;4.63;;;7.10;99.90;;;;;;5052841;28;20206;-55
2022/11/12 05:24:37;;;;;;;6.03;4.70;;;7.10;99.90;;;;;;5052781;28;20208;-56
2022/11/12 05:27:05;;;;;;;11.13;7.07;;;7.10;99.90;;;;;;5053061;28;20752;-55
2022/11/12 05:29:32;;;;;;;7.40;5.20;;;7.10;99.90;;;;;;5052636;28;20630;-56
2022/11/12 05:31:59;;;;;;;7.23;5.50;;;7.10;99.90;;;;;;5052818;28;20271;-57
2022/11/12 05:34:26;;;;;;;6.53;4.60;;;7.00;99.90;;;;;;5052940;28;20263;-56
2022/11/12 05:36:54;;;;;;;6.23;4.83;;;7.00;99.90;;;;;;5053957;28;20590;-56
2022/11/12 05:39:21;;;;;;;7.73;4.77;;;6.90;99.90;;;;;;5056481;28;20279;-55
2022/11/12 05:41:49;;;;;;;5.10;4.40;;;6.90;99.90;;;;;;5056188;28;20209;-56
2022/11/12 05:44:16;;;;;;;7.53;5.80;;;6.80;99.90;;;;;;5056723;28;20241;-56
2022/11/12 05:46:43;;;;;;;5.27;4.70;;;6.70;99.90;;;;;;5056719;28;20229;-56
2022/11/12 05:49:11;;;;;;;5.03;4.53;;;6.70;99.90;;;;;;5056504;28;20197;-55
2022/11/12 05:51:38;;;;;;;6.70;5.00;;;6.60;99.90;;;;;;5055921;28;20619;-56
2022/11/12 05:54:05;;;;;;;7.17;5.70;;;6.50;99.90;;;;;;5056555;28;20292;-55
2022/11/12 05:56:32;;;;;;;9.83;7.13;;;6.50;99.90;;;;;;5056785;28;20364;-57
2022/11/12 05:59:01;;;;;;;6.47;5.47;;;6.50;99.90;;;;;;5056527;28;20264;-56
2022/11/12 06:01:28;;;;;;;6.57;5.40;;;6.50;99.90;;;;;;5056437;28;20576;-56
2022/11/12 06:03:55;;;;;;;11.43;8.33;;;6.40;99.90;;;;;;5056454;28;20205;-56
2022/11/12 06:06:22;;;;;;;26.03;15.80;;;6.40;99.90;;;;;;5056107;28;20679;-56
2022/11/12 06:08:49;;;;;;;20.33;12.37;;;6.40;99.90;;;;;;5055968;28;20767;-56
2022/11/12 06:11:16;;;;;;;12.33;6.67;;;6.40;99.90;;;;;;5055340;28;20693;-57
2022/11/12 06:13:43;;;;;;;8.43;5.27;;;6.40;99.90;;;;;;5056188;28;20206;-56
2022/11/12 06:16:11;;;;;;;8.33;5.17;;;6.30;99.90;;;;;;5055692;28;20222;-56
2022/11/12 06:18:39;;;;;;;6.53;5.27;;;6.30;99.90;;;;;;5055591;28;20275;-57
2022/11/12 06:21:21;;;;;;;7.33;5.37;;;6.20;99.90;;;;;;5055959;28;20300;-56
2022/11/12 06:23:53;;;;;;;5.23;4.73;;;6.10;99.90;;;;;;5056002;28;20206;-56
2022/11/12 06:26:20;;;;;;;7.43;5.13;;;6.10;99.90;;;;;;5055896;28;20279;-56
2022/11/12 06:28:48;;;;;;;9.97;5.70;;;6.10;99.90;;;;;;5055796;28;20201;-56
2022/11/12 06:31:16;;;;;;;7.40;5.73;;;6.10;99.90;;;;;;5055147;28;20215;-56
2022/11/12 06:33:44;;;;;;;7.53;5.47;;;6.20;99.90;;;;;;5055818;28;20237;-56
2022/11/12 06:36:13;;;;;;;8.30;5.83;;;6.20;99.90;;;;;;5055408;28;20205;-56
2022/11/12 06:38:42;;;;;;;7.53;5.10;;;6.10;99.90;;;;;;5054411;28;20885;-55
2022/11/12 06:41:10;;;;;;;7.40;5.50;;;6.20;99.90;;;;;;5055207;28;20205;-56
2022/11/12 06:43:38;;;;;;;7.43;5.27;;;6.10;99.90;;;;;;5056232;28;20712;-56
2022/11/12 06:46:07;;;;;;;6.57;5.17;;;6.10;99.90;;;;;;5055888;28;20666;-56
2022/11/12 06:48:35;;;;;;;6.13;5.30;;;6.10;99.90;;;;;;5054728;28;20212;-57
2022/11/12 06:51:10;;;;;;;8.70;6.43;;;6.20;99.90;;;;;;5055057;28;20590;-55
2022/11/12 06:53:37;;;;;;;9.13;6.67;;;6.20;99.90;;;;;;5055293;28;20581;-55
2022/11/12 06:56:06;;;;;;;11.63;7.30;;;6.30;99.90;;;;;;5054614;28;20208;-55
2022/11/12 06:58:33;;;;;;;7.90;6.10;;;6.40;99.90;;;;;;5055080;28;20279;-56
2022/11/12 07:01:11;;;;;;;14.97;10.37;;;6.50;99.90;;;;;;5054266;28;20210;-55
2022/11/12 07:03:41;;;;;;;9.47;7.50;;;6.60;99.90;;;;;;5054996;28;20216;-54
2022/11/12 07:06:09;;;;;;;7.63;5.83;;;6.70;99.90;;;;;;5054771;28;20209;-55
2022/11/12 07:08:37;;;;;;;10.67;5.70;;;6.90;99.90;;;;;;5054755;28;20213;-55
2022/11/12 07:11:05;;;;;;;6.70;4.83;;;6.90;99.90;;;;;;5054188;28;20641;-55
2022/11/12 07:13:33;;;;;;;7.67;5.63;;;7.00;99.90;;;;;;5054728;28;20202;-55
2022/11/12 07:16:01;;;;;;;7.93;5.63;;;7.20;99.90;;;;;;5054538;28;20210;-56
2022/11/12 07:18:28;;;;;;;7.47;5.30;;;7.30;99.90;;;;;;5054258;28;20743;-55
2022/11/12 07:20:59;;;;;;;8.13;5.40;;;7.40;99.90;;;;;;5053762;28;20205;-55
2022/11/12 07:23:28;;;;;;;11.70;6.77;;;7.40;99.90;;;;;;5054725;28;20212;-57
2022/11/12 07:25:59;;;;;;;9.70;5.93;;;7.50;99.90;;;;;;5054472;28;20201;-57
2022/11/12 07:28:26;;;;;;;6.97;5.70;;;7.70;99.90;;;;;;5055123;28;20296;-57
2022/11/12 07:30:57;;;;;;;5.90;5.27;;;7.90;99.90;;;;;;5054176;28;20244;-57
2022/11/12 07:33:24;;;;;;;11.30;7.80;;;8.00;99.90;;;;;;5054726;28;20211;-56
2022/11/12 07:35:59;;;;;;;7.40;6.00;;;8.00;99.90;;;;;;5055255;28;20209;-57
2022/11/12 07:38:26;;;;;;;13.73;9.13;;;8.20;99.90;;;;;;5055594;28;20224;-57
2022/11/12 07:40:58;;;;;;;14.17;6.90;;;8.30;99.90;;;;;;5054315;28;20201;-57
2022/11/12 07:43:24;;;;;;;11.33;6.80;;;8.30;99.90;;;;;;5054769;28;20227;-57
2022/11/12 07:45:51;;;;;;;8.63;5.87;;;8.40;99.90;;;;;;5054726;28;20212;-57
2022/11/12 07:48:18;;;;;;;5.83;5.23;;;8.40;99.90;;;;;;5054692;28;20229;-58
2022/11/12 07:50:45;;;;;;;7.67;5.80;;;8.50;99.90;;;;;;5054679;28;20213;-57
2022/11/12 07:53:13;;;;;;;8.50;5.80;;;8.50;99.90;;;;;;5054562;28;20209;-57
2022/11/12 07:55:40;;;;;;;5.80;5.20;;;8.50;99.90;;;;;;5053377;28;20224;-60
2022/11/12 07:58:07;;;;;;;5.87;5.10;;;8.60;99.90;;;;;;5050966;28;20681;-58
2022/11/12 08:00:33;;;;;;;7.47;5.30;;;8.60;99.90;;;;;;5072063;28;20204;-60
2022/11/12 08:03:00;;;;;;;7.77;5.47;;;8.50;99.90;;;;;;5074583;28;20216;-60
2022/11/12 08:05:27;;;;;;;5.93;5.27;;;8.50;99.90;;;;;;5073705;28;20227;-68
2022/11/12 08:07:55;;;;;;;6.60;5.33;;;8.50;99.90;;;;;;5073167;28;20228;-60
2022/11/12 08:10:23;;;;;;;6.43;4.77;;;8.50;99.90;;;;;;5072633;28;20236;-60
2022/11/12 08:12:50;;;;;;;6.57;5.83;;;8.50;99.90;;;;;;5073249;28;20696;-59
2022/11/12 08:15:17;;;;;;;6.23;5.20;;;8.40;99.90;;;;;;5073535;28;20244;-60
2022/11/12 08:17:43;;;;;;;6.67;4.70;;;8.40;99.90;;;;;;5072314;28;20615;-59
2022/11/12 08:20:12;;;;;;;4.70;4.20;;;8.30;99.90;;;;;;5058730;28;20725;-60
2022/11/12 08:22:39;;;;;;;6.27;4.97;;;8.40;99.90;;;;;;5049868;28;20248;-57
2022/11/12 08:25:06;;;;;;;5.23;4.73;;;8.60;99.90;;;;;;5052458;28;20670;-56
2022/11/12 08:27:35;;;;;;;5.60;5.00;;;8.60;99.90;;;;;;5051871;28;20257;-58
2022/11/12 08:30:02;;;;;;;4.83;4.20;;;8.60;99.90;;;;;;5051567;28;20615;-57
2022/11/12 08:32:29;;;;;;;5.77;4.70;;;8.60;99.90;;;;;;5051881;28;20205;-57
2022/11/12 08:34:55;;;;;;;12.60;9.43;;;8.80;99.90;;;;;;5051609;28;20206;-57
2022/11/12 08:37:22;;;;;;;6.17;4.73;;;9.00;99.90;;;;;;5051404;28;20239;-57
2022/11/12 08:39:49;;;;;;;5.90;4.90;;;9.20;99.90;;;;;;5051304;28;20227;-57
2022/11/12 08:42:16;;;;;;;6.63;4.97;;;9.50;99.90;;;;;;5051455;28;20215;-58
2022/11/12 08:44:44;;;;;;;12.03;8.23;;;9.60;99.90;;;;;;5052220;28;20209;-58
2022/11/12 08:47:11;;;;;;;5.60;4.93;;;9.90;99.90;;;;;;5051328;28;20328;-58
2022/11/12 08:49:38;;;;;;;7.33;4.90;;;10.00;99.90;;;;;;5052181;28;20209;-57
2022/11/12 08:52:05;;;;;;;5.53;4.83;;;10.20;99.90;;;;;;5050988;28;20211;-58
2022/11/12 08:54:32;;;;;;;5.07;4.57;;;10.40;99.90;;;;;;5051934;28;20216;-58
2022/11/12 08:56:59;;;;;;;5.47;4.97;;;10.50;99.90;;;;;;5051204;28;20232;-57
2022/11/12 08:59:26;;;;;;;5.97;4.60;;;10.60;99.90;;;;;;5051536;28;20229;-60
2022/11/12 09:01:54;;;;;;;7.43;4.67;;;10.70;99.90;;;;;;5051519;28;20205;-58
2022/11/12 09:04:21;;;;;;;6.13;4.00;;;10.90;99.90;;;;;;5051416;28;20213;-58
2022/11/12 09:06:48;;;;;;;7.20;4.90;;;11.00;99.90;;;;;;5051244;28;20550;-59
2022/11/12 09:09:15;;;;;;;6.43;4.23;;;11.10;99.90;;;;;;5051361;28;20201;-59
2022/11/12 09:11:41;;;;;;;5.50;4.53;;;11.20;99.90;;;;;;5050350;28;20295;-59
2022/11/12 09:14:08;;;;;;;6.10;4.20;;;11.30;99.90;;;;;;5051077;28;20205;-59
2022/11/12 09:16:35;;;;;;;6.13;4.27;;;11.40;99.90;;;;;;5053915;28;20295;-58
2022/11/12 09:19:03;;;;;;;4.83;4.10;;;11.40;99.90;;;;;;5051415;28;20719;-58
2022/11/12 09:21:30;;;;;;;6.33;4.67;;;11.40;99.90;;;;;;5050677;28;20210;-58
2022/11/12 09:23:57;;;;;;;4.50;3.97;;;11.40;99.90;;;;;;5050637;28;20209;-58
2022/11/12 09:26:24;;;;;;;4.60;4.10;;;11.50;99.90;;;;;;5051121;28;20230;-58
2022/11/12 09:28:52;;;;;;;7.63;6.53;;;11.60;99.90;;;;;;5050982;28;20209;-58
2022/11/12 09:31:19;;;;;;;5.43;4.50;;;11.50;99.90;;;;;;5050618;28;20216;-58
2022/11/12 09:33:46;;;;;;;5.73;4.40;;;11.60;99.90;;;;;;5050761;28;20213;-58
2022/11/12 09:36:16;;;;;;;4.60;3.77;;;11.60;99.90;;;;;;5050812;28;20291;-58
2022/11/12 09:38:43;;;;;;;5.30;3.70;;;11.60;99.90;;;;;;5050780;28;20743;-57
2022/11/12 09:41:22;;;;;;;8.53;3.80;;;11.60;99.90;;;;;;5050682;28;20725;-57
2022/11/12 09:43:51;;;;;;;4.20;3.80;;;11.60;99.90;;;;;;5051362;28;20205;-61
2022/11/12 09:46:33;;;;;;;8.03;4.90;;;11.60;99.90;;;;;;5052492;28;20648;-59
2022/11/12 09:49:07;;;;;;;6.47;3.77;;;11.70;99.90;;;;;;5050888;28;20205;-59
2022/11/12 09:51:39;;;;;;;5.10;3.77;;;11.80;99.90;;;;;;5050840;28;20216;-59
2022/11/12 09:54:17;;;;;;;5.17;4.00;;;11.90;99.90;;;;;;5051981;28;20212;-60
2022/11/12 09:56:44;;;;;;;4.97;3.60;;;11.90;99.90;;;;;;5051536;28;20236;-63
2022/11/12 09:59:12;;;;;;;4.80;3.90;;;11.80;99.90;;;;;;5051108;28;20320;-59
2022/11/12 10:01:49;;;;;;;3.90;3.33;;;11.80;99.90;;;;;;5050469;28;20217;-59
2022/11/12 10:04:46;;;;;;;5.10;3.50;;;11.90;99.90;;;;;;5050933;28;20292;-58
2022/11/12 10:07:24;;;;;;;9.47;6.43;;;12.20;99.90;;;;;;5050722;28;20240;-59
2022/11/12 10:10:01;;;;;;;5.70;4.07;;;12.40;99.90;;;;;;5050817;28;20256;-59
2022/11/12 10:12:38;;;;;;;5.53;4.00;;;12.70;99.90;;;;;;5050797;28;20215;-60
2022/11/12 10:18:31;;;;;;;3.67;3.07;;;13.00;99.90;;;;;;5050537;28;20250;-58
2022/11/12 10:21:04;;;;;;;3.73;3.33;;;13.30;99.90;;;;;;5050330;28;20223;-60
2022/11/12 10:23:40;;;;;;;4.30;3.50;;;13.50;99.90;;;;;;5051688;28;20213;-59
2022/11/12 10:26:12;;;;;;;5.03;3.60;;;13.70;99.90;;;;;;5054299;28;20209;-59
2022/11/12 10:28:46;;;;;;;3.20;2.90;;;13.90;99.90;;;;;;5054567;28;20256;-58
2022/11/12 10:31:15;;;;;;;7.00;3.40;;;14.10;99.90;;;;;;5054616;28;20216;-59
2022/11/12 10:33:42;;;;;;;4.90;3.33;;;14.30;99.90;;;;;;5054528;28;20205;-60
2022/11/12 10:36:27;;;;;;;4.67;3.43;;;14.60;99.90;;;;;;5053625;28;20209;-64
2022/11/12 10:38:56;;;;;;;4.37;3.13;;;14.80;99.90;;;;;;5053498;28;20225;-59
2022/11/12 10:41:26;;;;;;;5.33;3.47;;;14.80;99.90;;;;;;5055093;28;20231;-64
2022/11/12 10:43:57;;;;;;;4.80;3.20;;;14.90;99.90;;;;;;5054900;28;20252;-60
2022/11/12 10:46:25;;;;;;;5.43;3.70;;;14.90;99.90;;;;;;5054124;28;20225;-58
2022/11/12 10:49:02;;;;;;;6.67;4.50;;;15.10;99.90;;;;;;5054118;28;20205;-58
2022/11/12 10:51:31;;;;;;;4.27;3.27;;;15.30;99.90;;;;;;5053917;28;20243;-58
2022/11/12 10:54:18;;;;;;;4.40;3.53;;;15.60;99.90;;;;;;5054299;28;20205;-58
2022/11/12 10:56:46;;;;;;;6.07;3.50;;;15.60;99.90;;;;;;5054035;28;20230;-58
2022/11/12 10:59:17;;;;;;;5.10;3.60;;;15.60;99.90;;;;;;5053664;28;20643;-58
2022/11/12 11:01:45;;;;;;;4.30;3.30;;;15.70;99.90;;;;;;5054345;28;20821;-61
2022/11/12 11:04:27;;;;;;;5.68;3.50;;;15.80;99.90;;;;;;5053990;28;20281;-58
2022/11/12 11:07:00;;;;;;;4.67;3.53;;;15.90;99.90;;;;;;5053102;28;20225;-58
2022/11/12 11:09:28;;;;;;;3.90;3.37;;;16.00;99.90;;;;;;5053535;28;20201;-58
2022/11/12 11:11:55;;;;;;;5.67;3.40;;;15.80;99.90;;;;;;5052992;28;20206;-59
2022/11/12 11:14:31;;;;;;;5.13;3.50;;;15.40;99.90;;;;;;5052594;28;20210;-59
2022/11/12 11:17:00;;;;;;;3.35;3.05;;;15.30;99.90;;;;;;5053138;28;20229;-59
2022/11/12 11:19:35;;;;;;;4.23;3.40;;;15.10;99.90;;;;;;5053330;28;20225;-56
2022/11/12 11:22:20;;;;;;;5.27;3.20;;;15.00;99.90;;;;;;5053028;28;20295;-60
2022/11/12 11:25:15;;;;;;;3.70;3.10;;;15.00;99.90;;;;;;5052574;28;20673;-58
2022/11/12 11:27:50;;;;;;;4.60;2.93;;;15.30;99.90;;;;;;5053181;28;20238;-58
2022/11/12 11:30:19;;;;;;;3.10;2.80;;;15.60;99.90;;;;;;5052612;28;20673;-58
2022/11/12 11:33:12;;;;;;;3.20;2.90;;;15.80;99.90;;;;;;5054006;28;20292;-57
2022/11/12 11:35:52;;;;;;;3.70;3.05;;;15.90;99.90;;;;;;5053236;28;20269;-58
2022/11/12 11:38:35;;;;;;;4.17;3.20;;;15.80;99.90;;;;;;5052658;28;20322;-57
2022/11/12 11:41:18;;;;;;;4.83;3.67;;;16.00;99.90;;;;;;5052505;28;20271;-59
2022/11/12 11:43:58;;;;;;;5.57;3.83;;;16.20;99.90;;;;;;5053845;28;20209;-56
2022/11/12 11:46:40;;;;;;;4.38;3.22;;;16.40;99.90;;;;;;5052910;28;20236;-59
2022/11/12 11:49:33;;;;;;;5.53;3.63;;;16.60;99.90;;;;;;5052752;28;20321;-58
2022/11/12 11:52:07;;;;;;;9.02;3.53;;;16.70;99.90;;;;;;5053812;28;20249;-58
2022/11/12 11:54:51;;;;;;;5.55;3.58;;;16.60;99.90;;;;;;5053528;28;20579;-59
2022/11/12 11:57:38;;;;;;;6.63;4.03;;;16.30;99.90;;;;;;5052750;28;20647;-58
2022/11/12 12:00:17;;;;;;;5.38;3.88;;;16.40;99.90;;;;;;5053965;28;20236;-59
2022/11/12 12:03:15;;;;;;;7.18;3.08;;;16.30;99.90;;;;;;5055971;28;20213;-60
2022/11/12 12:05:48;;;;;;;4.43;3.10;;;16.10;99.90;;;;;;5053305;28;20205;-60
2022/11/12 12:08:26;;;;;;;4.70;3.30;;;15.80;99.90;;;;;;5054001;28;20226;-59
2022/11/12 12:10:59;;;;;;;4.38;3.60;;;15.50;99.90;;;;;;5054415;28;20201;-60
2022/11/12 12:13:40;;;;;;;4.78;3.30;;;15.40;99.90;;;;;;5053058;28;20205;-58
2022/11/12 12:16:37;;;;;;;5.88;3.10;;;15.40;99.90;;;;;;5052106;28;20681;-64
2022/11/12 12:19:17;;;;;;;4.05;3.28;;;15.30;99.90;;;;;;5047209;28;20292;-60
2022/11/12 12:21:48;;;;;;;7.50;3.67;;;15.30;99.90;;;;;;5053019;28;20205;-57
2022/11/12 12:24:20;;;;;;;6.07;3.72;;;15.20;99.90;;;;;;5054334;28;20243;-60
2022/11/12 12:26:52;;;;;;;5.43;3.60;;;15.20;99.90;;;;;;5052532;28;20233;-60
2022/11/12 12:29:27;;;;;;;4.13;3.30;;;15.30;99.90;;;;;;5052965;28;20225;-59
2022/11/12 12:32:00;;;;;;;4.40;3.30;;;15.20;99.90;;;;;;5052025;28;20244;-60
2022/11/12 12:34:31;;;;;;;6.77;3.73;;;15.10;99.90;;;;;;5053486;28;20209;-60
2022/11/12 12:37:03;;;;;;;4.33;3.73;;;15.00;99.90;;;;;;5053640;28;20236;-60
2022/11/12 12:39:40;;;;;;;7.57;3.72;;;15.10;99.90;;;;;;5052894;28;20229;-60
2022/11/12 12:42:16;;;;;;;5.73;3.80;;;15.30;99.90;;;;;;5052778;28;20213;-60
2022/11/12 12:45:03;;;;;;;4.77;3.67;;;15.20;99.90;;;;;;5053884;28;20205;-60
2022/11/12 12:47:35;;;;;;;6.77;3.43;;;15.10;99.90;;;;;;5053006;28;20226;-61
2022/11/12 12:50:05;;;;;;;6.40;3.97;;;15.10;99.90;;;;;;5054092;28;20205;-60
2022/11/12 12:53:00;;;;;;;6.97;3.80;;;15.20;99.90;;;;;;5053716;28;20232;-60
2022/11/12 12:55:38;;;;;;;3.87;3.47;;;15.20;99.90;;;;;;5055051;28;20213;-60
2022/11/12 12:58:05;;;;;;;3.85;3.20;;;15.20;99.90;;;;;;5054685;28;20229;-60
2022/11/12 13:00:37;;;;;;;4.63;3.90;;;15.20;99.90;;;;;;5054228;28;20261;-60
2022/11/12 13:03:05;;;;;;;4.27;3.67;;;15.30;99.90;;;;;;5055087;28;20647;-60
2022/11/12 13:05:34;;;;;;;5.75;3.60;;;15.50;99.90;;;;;;5055258;28;20212;-60
2022/11/12 13:08:07;;;;;;;4.07;3.53;;;15.60;99.90;;;;;;5054982;28;20229;-59
2022/11/12 13:10:52;;;;;;;4.67;4.10;;;15.50;99.90;;;;;;5054099;28;20209;-60
2022/11/12 13:13:29;;;;;;;5.60;3.70;;;15.40;99.90;;;;;;5054829;28;20284;-60
2022/11/12 13:15:59;;;;;;;6.80;3.90;;;15.40;99.90;;;;;;5054711;28;20280;-60
2022/11/12 13:19:00;;;;;;;5.30;4.00;;;15.60;99.90;;;;;;5053678;28;20561;-59
2022/11/12 13:21:28;;;;;;;4.25;3.70;;;15.70;99.90;;;;;;5053426;28;20657;-64
2022/11/12 13:24:07;;;;;;;7.18;3.88;;;15.70;99.90;;;;;;5075493;28;20205;-61
2022/11/12 13:26:54;;;;;;;4.68;3.67;;;15.80;99.90;;;;;;5074494;28;20754;-60
2022/11/12 13:29:40;;;;;;;5.03;3.47;;;15.90;99.90;;;;;;5074545;28;20201;-61
2022/11/12 13:32:34;;;;;;;6.22;3.70;;;15.80;99.90;;;;;;5073619;28;20209;-60